Time;durP1;ratioP1;P1;durP2;ratioP2;P2;SDS_P1;SDS_P2;PMS_P1;PMS_P2;Temp;Humidity;BMP_temperature;BMP_pressure;BME280_temperature;BME280_humidity;BME280_pressure;Samples;Min_cycle;Max_cycle;Signal;HPM_P1;HPM_P2
2024/01/03 00:01:26;;;;;;;1.97;1.10;;;10.90;99.90;;;;;;5093036;28;20461;-61
2024/01/03 00:03:55;;;;;;;3.30;1.30;;;10.90;99.90;;;;;;5092978;28;20434;-61
2024/01/03 00:06:21;;;;;;;3.30;1.17;;;10.90;99.90;;;;;;5093152;28;20434;-61
2024/01/03 00:08:48;;;;;;;3.63;1.20;;;11.00;99.90;;;;;;5092952;28;20559;-61
2024/01/03 00:11:20;;;;;;;2.60;1.10;;;11.00;99.90;;;;;;5092578;28;20878;-60
2024/01/03 00:14:17;;;;;;;3.23;1.17;;;11.00;99.90;;;;;;5092755;28;20431;-61
2024/01/03 00:16:43;;;;;;;1.63;1.03;;;11.00;99.90;;;;;;5092527;28;20418;-61
2024/01/03 00:19:17;;;;;;;3.30;1.00;;;11.00;99.90;;;;;;5093137;28;20440;-61
2024/01/03 00:21:44;;;;;;;4.70;1.50;;;11.00;99.90;;;;;;5092720;28;20520;-61
2024/01/03 00:24:14;;;;;;;2.27;1.30;;;11.00;99.90;;;;;;5092733;28;20443;-61
2024/01/03 00:26:41;;;;;;;1.97;1.20;;;11.00;99.90;;;;;;5092888;28;20422;-61
2024/01/03 00:29:35;;;;;;;5.63;1.10;;;10.90;99.90;;;;;;5095631;28;20810;-61
2024/01/03 00:32:05;;;;;;;4.53;1.70;;;11.00;99.90;;;;;;5096497;28;20771;-61
2024/01/03 00:34:39;;;;;;;3.17;1.30;;;11.00;99.90;;;;;;5096827;28;20441;-63
2024/01/03 00:37:22;;;;;;;1.40;0.90;;;11.10;99.90;;;;;;5096148;28;21063;-62
2024/01/03 00:39:49;;;;;;;6.53;2.23;;;11.00;99.90;;;;;;5096681;28;20426;-61
2024/01/03 00:42:16;;;;;;;6.23;1.77;;;11.10;99.90;;;;;;5096667;28;20469;-61
2024/01/03 00:44:44;;;;;;;3.57;1.40;;;11.10;99.90;;;;;;5096399;28;20448;-61
2024/01/03 00:47:12;;;;;;;8.90;2.00;;;11.10;99.90;;;;;;5096928;28;20434;-61
2024/01/03 00:49:39;;;;;;;4.53;2.00;;;11.10;99.90;;;;;;5096914;28;20438;-61
2024/01/03 00:52:08;;;;;;;6.33;1.80;;;11.10;99.90;;;;;;5096482;28;20833;-61
2024/01/03 00:54:36;;;;;;;4.43;1.23;;;11.10;99.90;;;;;;5096545;28;20445;-62
2024/01/03 00:57:04;;;;;;;3.83;1.30;;;11.10;99.90;;;;;;5095966;28;20794;-61
2024/01/03 00:59:34;;;;;;;2.80;1.20;;;11.00;99.90;;;;;;5095999;28;20868;-61
2024/01/03 01:02:03;;;;;;;6.43;1.80;;;11.00;99.90;;;;;;5096200;28;20460;-63
2024/01/03 01:04:31;;;;;;;3.77;1.70;;;10.90;99.90;;;;;;5096026;28;20924;-61
2024/01/03 01:06:58;;;;;;;4.97;1.50;;;10.90;99.90;;;;;;5096035;28;20442;-62
2024/01/03 01:09:25;;;;;;;3.73;1.47;;;10.90;99.90;;;;;;5119538;28;20442;-62
2024/01/03 01:11:52;;;;;;;3.23;1.40;;;10.90;99.90;;;;;;5096797;28;20838;-61
2024/01/03 01:14:18;;;;;;;4.43;1.90;;;10.90;99.90;;;;;;5096189;28;20958;-62
2024/01/03 01:16:45;;;;;;;4.53;1.43;;;10.80;99.90;;;;;;5095927;28;20446;-61
2024/01/03 01:19:13;;;;;;;3.47;1.60;;;10.90;99.90;;;;;;5096778;28;20484;-60
2024/01/03 01:21:43;;;;;;;4.13;2.03;;;10.90;99.90;;;;;;5096286;28;20487;-60
2024/01/03 01:24:10;;;;;;;4.17;1.87;;;10.90;99.90;;;;;;5096418;28;20855;-60
2024/01/03 01:26:37;;;;;;;4.17;1.13;;;10.90;99.90;;;;;;5095660;28;20442;-60
2024/01/03 01:29:04;;;;;;;4.33;1.60;;;10.80;99.90;;;;;;5095918;28;20442;-61
2024/01/03 01:31:31;;;;;;;3.70;1.43;;;10.80;99.90;;;;;;5095384;28;20874;-61
2024/01/03 01:33:58;;;;;;;5.30;1.43;;;10.80;99.90;;;;;;5096407;28;20438;-61
2024/01/03 01:36:26;;;;;;;6.63;1.57;;;10.70;99.90;;;;;;5095653;28;20443;-63
2024/01/03 01:38:53;;;;;;;8.00;2.47;;;10.70;99.90;;;;;;5095426;28;20480;-61
2024/01/03 01:41:19;;;;;;;6.97;1.20;;;10.70;99.90;;;;;;5094530;28;20465;-60
2024/01/03 01:43:46;;;;;;;6.70;1.70;;;10.60;99.90;;;;;;5095456;28;20500;-61
2024/01/03 01:46:13;;;;;;;5.27;2.03;;;10.60;99.90;;;;;;5095420;28;20447;-61
2024/01/03 01:48:43;;;;;;;6.80;1.60;;;10.60;99.90;;;;;;5095277;28;20439;-61
2024/01/03 01:51:11;;;;;;;5.67;2.00;;;10.50;99.90;;;;;;5095234;28;20464;-61
2024/01/03 01:53:39;;;;;;;6.30;1.87;;;10.50;99.90;;;;;;5095071;28;20444;-61
2024/01/03 01:56:08;;;;;;;3.27;1.33;;;10.50;99.90;;;;;;5095082;28;20438;-61
2024/01/03 01:58:35;;;;;;;6.63;1.87;;;10.50;99.90;;;;;;5095229;28;20474;-61
2024/01/03 02:01:02;;;;;;;3.60;1.80;;;10.50;99.90;;;;;;5095260;28;20454;-61
2024/01/03 02:03:29;;;;;;;3.40;1.33;;;10.50;99.90;;;;;;5094823;28;20444;-61
2024/01/03 02:05:56;;;;;;;6.33;1.50;;;10.40;99.90;;;;;;5095009;28;20441;-62
2024/01/03 02:08:25;;;;;;;5.13;1.43;;;10.40;99.90;;;;;;5095120;28;20437;-62
2024/01/03 02:10:53;;;;;;;5.17;1.83;;;10.40;99.90;;;;;;5095273;28;20450;-62
2024/01/03 02:13:19;;;;;;;6.67;2.17;;;10.40;99.90;;;;;;5095195;28;20441;-62
2024/01/03 02:15:46;;;;;;;4.33;1.50;;;10.30;99.90;;;;;;5094731;28;20479;-61
2024/01/03 02:18:14;;;;;;;7.73;2.30;;;10.30;99.90;;;;;;5094743;28;20481;-61
2024/01/03 02:20:43;;;;;;;3.83;1.80;;;10.30;99.90;;;;;;5094336;28;20935;-61
2024/01/03 02:23:11;;;;;;;4.60;1.80;;;10.30;99.90;;;;;;5094709;28;20819;-62
2024/01/03 02:25:38;;;;;;;4.80;1.47;;;10.30;99.90;;;;;;5094770;28;20434;-60
2024/01/03 02:28:08;;;;;;;5.43;1.83;;;10.30;99.90;;;;;;5094945;28;20445;-61
2024/01/03 02:30:35;;;;;;;6.00;1.60;;;10.30;99.90;;;;;;5094470;28;20992;-60
2024/01/03 02:33:02;;;;;;;8.60;1.90;;;10.30;99.90;;;;;;5094640;28;20431;-60
2024/01/03 02:35:29;;;;;;;7.93;1.67;;;10.40;99.90;;;;;;5094240;28;20442;-60
2024/01/03 02:37:56;;;;;;;8.10;1.93;;;10.50;99.90;;;;;;5094249;28;21007;-62
2024/01/03 02:40:24;;;;;;;5.80;1.50;;;10.60;99.90;;;;;;5094683;28;20449;-62
2024/01/03 02:42:51;;;;;;;6.40;1.60;;;10.60;99.90;;;;;;5094385;28;20438;-62
2024/01/03 02:45:17;;;;;;;5.73;1.83;;;10.60;99.90;;;;;;5094214;28;20437;-62
2024/01/03 02:47:44;;;;;;;3.10;1.47;;;10.70;99.90;;;;;;5094299;28;20442;-61
2024/01/03 02:50:11;;;;;;;6.73;1.90;;;10.70;99.90;;;;;;5094158;28;20446;-61
2024/01/03 02:52:38;;;;;;;3.63;1.77;;;10.80;99.90;;;;;;5092970;28;20438;-61
2024/01/03 02:55:05;;;;;;;4.77;1.60;;;10.80;99.90;;;;;;5094353;28;20448;-59
2024/01/03 02:57:33;;;;;;;9.37;2.10;;;10.80;99.90;;;;;;5094008;28;20507;-60
2024/01/03 03:00:00;;;;;;;4.20;1.40;;;10.80;99.90;;;;;;5093962;28;20881;-61
2024/01/03 03:02:27;;;;;;;6.43;1.80;;;10.80;99.90;;;;;;5094735;28;20438;-60
2024/01/03 03:04:53;;;;;;;4.50;1.50;;;10.80;99.90;;;;;;5111369;28;20517;-61
2024/01/03 03:07:20;;;;;;;3.10;1.47;;;10.90;99.90;;;;;;5095130;28;20810;-62
2024/01/03 03:09:47;;;;;;;5.33;1.97;;;10.90;99.90;;;;;;5093766;28;20810;-60
2024/01/03 03:12:14;;;;;;;5.33;1.33;;;10.90;99.90;;;;;;5093766;28;20469;-60
2024/01/03 03:14:42;;;;;;;4.03;1.40;;;10.90;99.90;;;;;;5093550;28;20487;-60
2024/01/03 03:17:09;;;;;;;5.23;1.83;;;10.90;99.90;;;;;;5093701;28;20446;-61
2024/01/03 03:19:35;;;;;;;3.60;1.30;;;10.90;99.90;;;;;;5093698;28;20569;-62
2024/01/03 03:22:02;;;;;;;3.17;1.70;;;10.90;99.90;;;;;;5092929;28;20557;-60
2024/01/03 03:24:29;;;;;;;4.30;1.70;;;10.90;99.90;;;;;;5093189;28;20442;-61
2024/01/03 03:26:56;;;;;;;6.13;1.27;;;10.90;99.90;;;;;;5093332;28;20443;-63
2024/01/03 03:29:22;;;;;;;8.67;1.90;;;10.90;99.90;;;;;;5093511;28;20430;-62
2024/01/03 03:31:51;;;;;;;6.97;2.10;;;10.90;99.90;;;;;;5093590;28;20477;-62
2024/01/03 03:34:18;;;;;;;4.60;1.87;;;10.90;99.90;;;;;;5093202;28;20454;-61
2024/01/03 03:36:44;;;;;;;2.50;1.20;;;10.90;99.90;;;;;;5093311;28;20488;-61
2024/01/03 03:39:11;;;;;;;2.23;1.70;;;10.90;99.90;;;;;;5092797;28;20478;-62
2024/01/03 03:41:38;;;;;;;6.03;1.60;;;10.90;99.90;;;;;;5092825;28;20462;-62
2024/01/03 03:44:05;;;;;;;6.57;1.33;;;11.00;99.90;;;;;;5092991;28;20808;-61
2024/01/03 03:46:32;;;;;;;4.43;1.70;;;11.00;99.90;;;;;;5093033;28;20487;-61
2024/01/03 03:49:00;;;;;;;6.27;1.80;;;11.00;99.90;;;;;;5093256;28;20430;-61
2024/01/03 03:51:27;;;;;;;7.53;1.60;;;11.00;99.90;;;;;;5093101;28;20464;-61
2024/01/03 03:53:54;;;;;;;4.70;1.70;;;11.00;99.90;;;;;;5093036;28;20441;-61
2024/01/03 03:56:25;;;;;;;5.40;1.70;;;11.00;99.90;;;;;;5092951;28;20458;-62
2024/01/03 03:58:52;;;;;;;7.73;1.97;;;11.00;99.90;;;;;;5093066;28;20557;-62
2024/01/03 04:01:19;;;;;;;5.60;2.10;;;11.00;99.90;;;;;;5093924;28;20824;-60
2024/01/03 04:03:45;;;;;;;4.93;1.33;;;11.00;99.90;;;;;;5093255;28;20740;-61
2024/01/03 04:06:15;;;;;;;6.37;1.90;;;11.00;99.90;;;;;;5093296;28;20442;-61
2024/01/03 04:08:43;;;;;;;5.30;1.70;;;11.00;99.70;;;;;;5092883;28;20823;-62
2024/01/03 04:12:55;;;;;;;6.17;1.80;;;11.00;99.90;;;;;;5131453;27;20591;-63
2024/01/03 04:15:22;;;;;;;6.17;2.00;;;10.90;99.90;;;;;;5131115;27;20433;-63
2024/01/03 04:17:48;;;;;;;9.87;1.80;;;10.80;99.90;;;;;;5130596;27;20877;-63
2024/01/03 04:20:15;;;;;;;4.93;1.60;;;10.70;99.90;;;;;;5130953;27;20441;-61
2024/01/03 04:22:44;;;;;;;8.30;2.63;;;10.70;99.90;;;;;;5131128;27;20443;-62
2024/01/03 04:25:11;;;;;;;4.93;1.90;;;10.60;99.90;;;;;;5130995;27;20433;-62
2024/01/03 04:27:38;;;;;;;4.83;1.67;;;10.60;99.90;;;;;;5130573;27;20456;-61
2024/01/03 04:30:07;;;;;;;5.50;1.90;;;10.60;99.90;;;;;;5130876;27;20437;-63
2024/01/03 04:32:34;;;;;;;6.43;2.13;;;10.60;99.90;;;;;;5130592;27;20964;-63
2024/01/03 04:35:00;;;;;;;5.90;2.10;;;10.60;99.90;;;;;;5130966;27;20428;-63
2024/01/03 04:37:28;;;;;;;3.40;1.93;;;10.60;99.90;;;;;;5130734;27;20437;-62
2024/01/03 04:39:55;;;;;;;6.33;2.30;;;10.60;99.90;;;;;;5130910;27;20528;-62
2024/01/03 04:42:21;;;;;;;4.40;2.00;;;10.60;99.90;;;;;;5130858;27;20460;-62
2024/01/03 04:44:48;;;;;;;3.60;1.97;;;10.70;99.90;;;;;;5130787;27;20443;-62
2024/01/03 04:47:16;;;;;;;3.47;1.90;;;10.50;99.90;;;;;;5130565;27;20440;-62
2024/01/03 04:49:43;;;;;;;5.73;2.30;;;10.40;99.90;;;;;;5131186;27;20437;-62
2024/01/03 04:52:11;;;;;;;4.17;2.10;;;10.30;99.90;;;;;;5130190;27;20487;-62
2024/01/03 04:54:38;;;;;;;3.97;1.90;;;10.20;99.90;;;;;;5130209;27;20532;-63
2024/01/03 04:57:05;;;;;;;8.77;2.63;;;10.20;99.90;;;;;;5140843;27;20457;-63
2024/01/03 04:59:32;;;;;;;11.83;3.27;;;10.10;99.90;;;;;;5135975;27;20935;-62
2024/01/03 05:01:59;;;;;;;3.63;2.37;;;10.00;99.90;;;;;;5130710;27;20461;-62
2024/01/03 05:04:27;;;;;;;4.57;2.27;;;9.80;99.90;;;;;;5130335;27;20437;-62
2024/01/03 05:06:52;;;;;;;8.20;2.43;;;9.70;99.90;;;;;;5130437;27;20441;-62
2024/01/03 05:09:19;;;;;;;5.23;2.07;;;9.60;99.90;;;;;;5130220;27;20437;-62
2024/01/03 05:11:46;;;;;;;7.90;2.37;;;9.60;99.90;;;;;;5130116;27;20484;-62
2024/01/03 05:14:13;;;;;;;6.67;2.20;;;9.60;99.90;;;;;;5130284;27;20432;-62
2024/01/03 05:16:41;;;;;;;5.43;2.10;;;9.60;99.90;;;;;;5129994;27;20439;-63
2024/01/03 05:19:07;;;;;;;4.43;2.58;;;9.60;99.90;;;;;;5130058;27;20444;-61
2024/01/03 05:21:35;;;;;;;11.60;2.67;;;9.70;99.90;;;;;;5129950;27;20219;-63
2024/01/03 05:24:02;;;;;;;8.20;2.90;;;9.70;99.90;;;;;;5117250;27;20808;-63
2024/01/03 05:26:29;;;;;;;7.67;2.30;;;9.60;99.90;;;;;;5115862;28;20445;-62
2024/01/03 05:28:56;;;;;;;4.07;1.97;;;9.70;99.90;;;;;;5116156;28;20442;-62
2024/01/03 05:31:23;;;;;;;5.65;2.15;;;9.70;99.90;;;;;;5115885;28;20488;-63
2024/01/03 05:33:50;;;;;;;3.88;2.05;;;9.70;99.90;;;;;;5115766;28;20722;-63
2024/01/03 05:36:17;;;;;;;3.70;2.33;;;9.70;99.90;;;;;;5115717;28;20566;-63
2024/01/03 05:38:45;;;;;;;3.27;1.73;;;9.70;99.90;;;;;;5115554;28;20444;-63
2024/01/03 05:41:12;;;;;;;8.00;2.00;;;9.70;99.90;;;;;;5115704;28;20460;-61
2024/01/03 05:43:38;;;;;;;3.80;1.90;;;9.70;99.90;;;;;;5115928;27;20195;-63
2024/01/03 05:46:06;;;;;;;4.47;2.20;;;9.80;99.90;;;;;;5115970;28;20437;-63
2024/01/03 05:48:33;;;;;;;3.33;1.90;;;9.80;99.90;;;;;;5115915;28;20200;-63
2024/01/03 05:50:59;;;;;;;6.43;2.27;;;9.90;99.90;;;;;;5115555;28;20463;-62
2024/01/03 05:53:26;;;;;;;4.77;2.00;;;9.90;99.90;;;;;;5115264;28;20441;-63
2024/01/03 05:55:54;;;;;;;3.90;1.90;;;10.00;99.90;;;;;;5115186;28;20440;-62
2024/01/03 05:58:21;;;;;;;3.97;1.67;;;10.00;99.90;;;;;;5116443;28;20441;-62
2024/01/03 06:00:48;;;;;;;4.60;1.67;;;10.00;99.90;;;;;;5115813;28;20468;-61
2024/01/03 06:03:14;;;;;;;5.90;2.00;;;10.00;99.90;;;;;;5115891;27;20445;-62
2024/01/03 06:05:41;;;;;;;7.33;2.10;;;10.10;99.90;;;;;;5115674;28;20445;-62
2024/01/03 06:08:08;;;;;;;5.67;1.80;;;10.10;99.90;;;;;;5115240;28;20441;-62
2024/01/03 06:10:35;;;;;;;5.70;2.43;;;10.10;99.90;;;;;;5114870;28;20883;-62
2024/01/03 06:13:04;;;;;;;7.20;2.05;;;10.10;99.90;;;;;;5114957;28;20469;-63
2024/01/03 06:15:31;;;;;;;2.70;1.77;;;10.00;99.90;;;;;;5114909;27;20203;-63
2024/01/03 06:17:58;;;;;;;4.67;2.10;;;9.80;99.90;;;;;;5114999;28;20437;-63
2024/01/03 06:20:24;;;;;;;7.88;2.90;;;9.60;99.90;;;;;;5115773;28;20461;-62
2024/01/03 06:22:51;;;;;;;3.83;2.43;;;9.50;99.90;;;;;;5120337;27;20210;-62
2024/01/03 06:25:18;;;;;;;4.17;2.40;;;9.50;99.90;;;;;;5118931;28;20445;-62
2024/01/03 06:27:45;;;;;;;7.10;2.83;;;9.40;99.90;;;;;;5119935;28;20445;-62
2024/01/03 06:30:13;;;;;;;6.10;2.53;;;9.30;99.90;;;;;;5119076;27;20273;-63
2024/01/03 06:32:40;;;;;;;6.80;2.45;;;9.30;99.90;;;;;;5116604;28;20481;-62
2024/01/03 06:35:08;;;;;;;9.95;2.78;;;9.20;99.90;;;;;;5117379;28;20199;-63
2024/01/03 06:37:35;;;;;;;7.35;2.95;;;9.10;99.90;;;;;;5122077;28;20239;-63
2024/01/03 06:40:02;;;;;;;8.02;3.22;;;9.10;99.90;;;;;;5124305;28;20203;-63
2024/01/03 06:42:28;;;;;;;6.95;2.70;;;9.10;99.90;;;;;;5118639;28;20202;-63
2024/01/03 06:44:55;;;;;;;14.63;3.75;;;9.00;99.90;;;;;;5116618;28;20206;-63
2024/01/03 06:47:23;;;;;;;4.80;2.28;;;9.00;99.90;;;;;;5132318;28;20295;-61
2024/01/03 06:49:50;;;;;;;8.15;3.10;;;9.00;99.90;;;;;;5115380;28;20210;-62
2024/01/03 06:52:17;;;;;;;7.53;2.65;;;9.00;99.90;;;;;;5114879;28;20226;-61
2024/01/03 06:54:43;;;;;;;5.90;3.00;;;9.10;99.90;;;;;;5115244;27;20208;-62
2024/01/03 06:57:10;;;;;;;4.45;2.08;;;9.10;99.90;;;;;;5114607;28;20211;-61
2024/01/03 06:59:37;;;;;;;6.35;2.55;;;9.10;99.90;;;;;;5114094;28;20665;-62
2024/01/03 07:02:04;;;;;;;5.55;2.15;;;9.10;99.90;;;;;;5114217;28;20586;-62
2024/01/03 07:04:32;;;;;;;6.97;2.30;;;9.20;99.90;;;;;;5113929;28;20290;-62
2024/01/03 07:06:59;;;;;;;3.40;2.15;;;9.20;99.90;;;;;;5114850;28;20217;-62
2024/01/03 07:09:26;;;;;;;3.57;1.83;;;9.20;99.90;;;;;;5114212;28;20196;-63
2024/01/03 07:11:54;;;;;;;5.53;2.40;;;9.30;99.90;;;;;;5113923;28;20532;-62
2024/01/03 07:14:21;;;;;;;4.70;2.17;;;9.30;99.90;;;;;;5118329;28;20520;-63
2024/01/03 07:16:47;;;;;;;4.53;2.07;;;9.40;99.90;;;;;;5121846;28;20210;-62
2024/01/03 07:19:14;;;;;;;4.27;1.80;;;9.40;99.90;;;;;;5114410;28;20453;-62
2024/01/03 07:21:42;;;;;;;2.90;1.80;;;9.50;99.90;;;;;;5114446;28;20465;-63
2024/01/03 07:24:10;;;;;;;4.30;1.60;;;9.60;99.90;;;;;;5114771;28;20448;-61
2024/01/03 07:26:37;;;;;;;5.73;2.03;;;9.60;99.90;;;;;;5115814;28;20999;-62
2024/01/03 07:29:04;;;;;;;4.33;1.40;;;9.60;99.90;;;;;;5115007;28;20437;-62
2024/01/03 07:31:31;;;;;;;4.40;2.20;;;9.70;99.90;;;;;;5115104;28;20461;-63
2024/01/03 07:33:57;;;;;;;2.70;1.53;;;9.70;99.90;;;;;;5115796;28;20433;-62
2024/01/03 07:36:24;;;;;;;7.63;1.93;;;9.80;99.90;;;;;;5118207;27;20513;-62
2024/01/03 07:38:52;;;;;;;5.90;1.53;;;9.80;99.90;;;;;;5115293;28;20448;-63
2024/01/03 07:41:20;;;;;;;4.20;1.70;;;9.90;99.90;;;;;;5113631;28;20544;-63
2024/01/03 07:43:46;;;;;;;5.47;2.87;;;9.90;99.90;;;;;;5114912;28;20950;-63
2024/01/03 07:46:16;;;;;;;4.03;1.43;;;10.00;99.90;;;;;;5114253;28;20447;-63
2024/01/03 07:48:42;;;;;;;6.90;2.80;;;10.10;99.90;;;;;;5114138;28;20442;-65
2024/01/03 07:51:11;;;;;;;6.20;2.10;;;10.10;99.90;;;;;;5113727;28;20552;-64
2024/01/03 07:53:38;;;;;;;4.77;1.60;;;10.10;99.90;;;;;;5113844;28;20477;-66
2024/01/03 07:56:08;;;;;;;4.30;1.77;;;10.10;99.90;;;;;;5114470;28;20437;-65
2024/01/03 07:58:34;;;;;;;6.13;1.80;;;10.10;99.90;;;;;;5113873;28;20465;-63
2024/01/03 08:01:01;;;;;;;5.40;2.10;;;10.20;99.90;;;;;;5113996;28;20463;-64
2024/01/03 08:03:28;;;;;;;5.47;1.90;;;10.20;99.90;;;;;;5114222;28;20444;-64
2024/01/03 08:05:55;;;;;;;4.87;1.97;;;10.20;99.90;;;;;;5113820;28;20448;-63
2024/01/03 08:08:22;;;;;;;6.23;1.70;;;10.20;99.90;;;;;;5113645;28;20440;-63
2024/01/03 08:10:48;;;;;;;3.03;1.57;;;10.30;99.90;;;;;;5113610;28;20472;-64
2024/01/03 08:13:17;;;;;;;3.50;1.73;;;10.30;99.90;;;;;;5113491;28;20469;-61
2024/01/03 08:15:43;;;;;;;4.60;2.17;;;10.30;99.90;;;;;;5113638;28;20433;-61
2024/01/03 08:18:10;;;;;;;4.53;2.00;;;10.30;99.90;;;;;;5113422;28;20444;-63
2024/01/03 08:20:37;;;;;;;5.87;1.90;;;10.30;99.90;;;;;;5113532;28;20473;-63
2024/01/03 08:23:04;;;;;;;4.40;2.00;;;10.30;99.90;;;;;;5113356;28;20437;-66
2024/01/03 08:25:31;;;;;;;5.60;1.70;;;10.30;99.90;;;;;;5114979;28;20452;-63
2024/01/03 08:27:57;;;;;;;4.57;2.03;;;10.30;99.90;;;;;;5115132;28;20449;-64
2024/01/03 08:30:26;;;;;;;5.30;1.80;;;10.40;99.90;;;;;;5113137;28;20777;-61
2024/01/03 08:32:52;;;;;;;3.70;1.47;;;10.40;99.90;;;;;;5112870;28;20487;-61
2024/01/03 08:35:19;;;;;;;2.40;1.57;;;10.50;99.90;;;;;;5113048;28;20449;-63
2024/01/03 08:37:46;;;;;;;4.20;1.90;;;10.50;99.90;;;;;;5115472;28;20442;-62
2024/01/03 08:40:13;;;;;;;3.23;1.57;;;10.50;99.90;;;;;;5129177;28;20800;-63
2024/01/03 08:42:40;;;;;;;2.73;1.63;;;10.50;99.90;;;;;;5113413;28;20445;-61
2024/01/03 08:45:07;;;;;;;4.70;1.70;;;10.50;99.90;;;;;;5113116;28;21004;-62
2024/01/03 08:47:36;;;;;;;2.73;1.27;;;10.60;99.90;;;;;;5113250;28;20442;-63
2024/01/03 08:50:02;;;;;;;4.47;1.20;;;10.60;99.90;;;;;;5113263;28;20820;-63
2024/01/03 08:52:29;;;;;;;2.90;1.50;;;10.60;99.90;;;;;;5113549;28;20483;-63
2024/01/03 08:54:56;;;;;;;2.87;1.30;;;10.60;99.90;;;;;;5113476;28;20433;-62
2024/01/03 08:57:23;;;;;;;3.37;1.20;;;10.60;99.90;;;;;;5113514;28;20510;-66
2024/01/03 08:59:50;;;;;;;5.10;1.30;;;10.60;99.90;;;;;;5118019;27;20434;-64
2024/01/03 09:02:16;;;;;;;3.43;1.47;;;10.60;99.90;;;;;;5118291;28;21009;-63
2024/01/03 09:04:44;;;;;;;2.80;1.30;;;10.60;99.90;;;;;;5123003;27;20965;-63
2024/01/03 09:07:11;;;;;;;3.30;1.30;;;10.50;99.90;;;;;;5123946;28;20441;-63
2024/01/03 09:09:40;;;;;;;3.70;1.40;;;10.60;99.90;;;;;;5121604;28;20484;-63
2024/01/03 09:12:07;;;;;;;6.30;2.17;;;10.50;99.90;;;;;;5120064;28;20832;-63
2024/01/03 09:14:34;;;;;;;3.37;1.90;;;10.60;99.90;;;;;;5119862;28;20445;-63
2024/01/03 09:17:00;;;;;;;2.13;1.20;;;10.50;99.90;;;;;;5116483;28;20433;-63
2024/01/03 09:19:27;;;;;;;3.17;1.63;;;10.50;99.90;;;;;;5116752;28;20444;-63
2024/01/03 09:21:59;;;;;;;7.00;2.43;;;10.50;99.90;;;;;;5116439;28;20461;-64
2024/01/03 09:24:27;;;;;;;4.90;1.80;;;10.40;99.90;;;;;;5116742;28;20422;-62
2024/01/03 09:26:53;;;;;;;3.20;1.70;;;10.40;99.90;;;;;;5116490;28;20466;-64
2024/01/03 09:29:20;;;;;;;2.78;1.35;;;10.30;99.90;;;;;;5116606;28;20434;-63
2024/01/03 09:31:47;;;;;;;3.30;1.90;;;10.30;99.90;;;;;;5116779;28;20216;-63
2024/01/03 09:34:14;;;;;;;1.93;1.30;;;10.30;99.90;;;;;;5116471;27;20492;-63
2024/01/03 09:36:40;;;;;;;2.10;1.40;;;10.30;99.90;;;;;;5116727;28;20534;-63
2024/01/03 09:39:09;;;;;;;1.90;1.70;;;10.30;99.90;;;;;;5116089;28;20437;-64
2024/01/03 09:41:37;;;;;;;5.13;2.20;;;10.30;99.90;;;;;;5115756;28;20867;-64
2024/01/03 09:44:05;;;;;;;5.70;2.90;;;10.30;99.90;;;;;;5116400;28;20425;-64
2024/01/03 09:46:32;;;;;;;5.80;2.77;;;10.30;99.90;;;;;;5116518;28;20440;-64
2024/01/03 09:48:59;;;;;;;3.17;1.53;;;10.30;99.90;;;;;;5115830;28;20839;-64
2024/01/03 09:51:26;;;;;;;1.80;1.20;;;10.30;99.90;;;;;;5116300;28;20469;-62
2024/01/03 09:53:54;;;;;;;1.73;1.27;;;10.40;99.90;;;;;;5116090;28;20481;-64
2024/01/03 09:56:23;;;;;;;3.77;1.80;;;10.40;99.90;;;;;;5115954;28;20813;-63
2024/01/03 09:58:49;;;;;;;1.33;1.20;;;10.40;99.90;;;;;;5116453;28;20442;-62
2024/01/03 10:01:16;;;;;;;4.30;1.13;;;10.50;99.90;;;;;;5115808;28;20458;-65
2024/01/03 10:03:43;;;;;;;1.37;1.03;;;10.50;99.90;;;;;;5115631;28;20445;-63
2024/01/03 10:06:13;;;;;;;5.03;1.17;;;10.50;99.90;;;;;;5115260;28;20935;-63
2024/01/03 10:08:40;;;;;;;2.40;1.17;;;10.60;99.90;;;;;;5115135;28;20935;-64
2024/01/03 10:11:23;;;;;;;1.97;1.00;;;10.60;99.90;;;;;;5115533;28;20473;-63
2024/01/03 10:13:51;;;;;;;1.87;1.00;;;10.60;99.90;;;;;;5113776;28;20479;-64
2024/01/03 10:16:25;;;;;;;1.87;1.10;;;10.60;99.90;;;;;;5115782;28;20437;-62
2024/01/03 10:19:12;;;;;;;1.83;1.00;;;10.40;99.90;;;;;;5115693;28;20446;-62
2024/01/03 10:21:41;;;;;;;1.43;1.33;;;10.20;99.90;;;;;;5115901;28;20461;-63
2024/01/03 10:24:08;;;;;;;2.03;1.10;;;10.00;99.90;;;;;;5115708;28;20440;-62
2024/01/03 10:26:36;;;;;;;1.37;0.90;;;9.80;99.90;;;;;;5115952;28;20445;-63
2024/01/03 10:29:10;;;;;;;2.27;1.10;;;9.70;99.90;;;;;;5115324;28;20449;-63
2024/01/03 10:31:37;;;;;;;2.93;1.20;;;9.60;99.90;;;;;;5115178;28;20454;-63
2024/01/03 10:34:05;;;;;;;1.10;0.80;;;9.60;99.90;;;;;;5115814;28;20477;-64
2024/01/03 10:36:34;;;;;;;1.30;0.83;;;9.60;99.90;;;;;;5118924;27;20437;-63
2024/01/03 10:39:02;;;;;;;2.57;1.10;;;9.60;99.90;;;;;;5126390;28;20441;-62
2024/01/03 10:41:31;;;;;;;1.20;1.00;;;9.60;99.90;;;;;;5115195;28;20469;-62
2024/01/03 10:44:00;;;;;;;2.17;1.00;;;9.70;99.90;;;;;;5114869;28;20433;-63
2024/01/03 10:46:28;;;;;;;1.57;1.07;;;9.70;99.90;;;;;;5115021;28;20491;-63
2024/01/03 10:48:55;;;;;;;1.77;0.95;;;9.70;99.90;;;;;;5114999;27;20842;-63
2024/01/03 10:51:23;;;;;;;1.60;1.13;;;9.80;99.90;;;;;;5114939;28;20235;-63
2024/01/03 10:53:52;;;;;;;1.40;0.80;;;9.80;99.90;;;;;;5114733;28;20556;-63
2024/01/03 10:56:20;;;;;;;2.10;0.93;;;9.80;99.90;;;;;;5115069;28;20452;-63
2024/01/03 10:58:49;;;;;;;1.30;0.90;;;9.80;99.90;;;;;;5115470;28;20915;-63
2024/01/03 11:01:20;;;;;;;4.43;1.20;;;9.90;99.90;;;;;;5114742;28;20561;-64
2024/01/03 11:03:57;;;;;;;1.43;1.20;;;9.90;99.90;;;;;;5114717;28;20410;-64
2024/01/03 11:06:30;;;;;;;2.73;1.10;;;9.90;99.90;;;;;;5114402;28;20926;-63
2024/01/03 11:08:58;;;;;;;2.53;1.30;;;10.00;99.90;;;;;;5114187;28;20433;-64
2024/01/03 11:11:32;;;;;;;3.23;2.10;;;10.00;99.90;;;;;;5114339;28;20469;-63
2024/01/03 11:13:59;;;;;;;3.37;1.37;;;10.00;99.90;;;;;;5114634;28;20477;-64
2024/01/03 11:16:38;;;;;;;3.27;1.27;;;10.00;99.90;;;;;;5114582;28;20433;-63
2024/01/03 11:19:07;;;;;;;2.50;1.67;;;10.00;99.90;;;;;;5114781;28;20446;-62
2024/01/03 11:21:45;;;;;;;2.33;1.47;;;10.00;99.90;;;;;;5114090;28;20512;-63
2024/01/03 11:24:43;;;;;;;4.43;1.20;;;10.00;99.90;;;;;;5114411;28;20422;-62
2024/01/03 11:27:19;;;;;;;2.60;1.60;;;10.10;99.90;;;;;;5115439;28;20418;-63
2024/01/03 11:29:48;;;;;;;2.73;1.50;;;10.10;99.90;;;;;;5114819;27;20422;-64
2024/01/03 11:32:25;;;;;;;3.17;1.43;;;10.20;99.90;;;;;;5115635;28;20519;-64
2024/01/03 11:34:52;;;;;;;1.77;1.07;;;10.30;99.90;;;;;;5115274;28;20465;-64
2024/01/03 11:37:36;;;;;;;4.53;1.27;;;10.40;99.90;;;;;;5117274;28;20446;-64
2024/01/03 11:40:06;;;;;;;1.27;0.90;;;10.40;99.90;;;;;;5116451;28;20445;-64
2024/01/03 11:42:34;;;;;;;1.80;1.17;;;10.40;99.90;;;;;;5115773;28;20516;-64
2024/01/03 11:45:04;;;;;;;2.77;1.37;;;10.40;99.90;;;;;;5114423;28;20459;-63
2024/01/03 11:47:33;;;;;;;3.60;1.37;;;10.40;99.90;;;;;;5114367;28;20477;-65
2024/01/03 11:50:03;;;;;;;2.80;1.73;;;10.40;99.90;;;;;;5114146;28;20539;-65
2024/01/03 11:52:30;;;;;;;2.67;1.23;;;10.40;99.90;;;;;;5117538;28;20434;-63
2024/01/03 11:55:05;;;;;;;1.40;1.00;;;10.40;99.90;;;;;;5115919;28;20481;-63
2024/01/03 11:57:33;;;;;;;4.27;1.60;;;10.40;99.90;;;;;;5113988;28;20516;-65
2024/01/03 12:00:00;;;;;;;1.67;1.00;;;10.40;99.90;;;;;;5115052;28;20456;-64
2024/01/03 12:02:27;;;;;;;4.47;1.70;;;10.40;99.90;;;;;;5116842;28;20454;-64
2024/01/03 12:05:01;;;;;;;2.33;1.50;;;10.40;99.90;;;;;;5115924;28;20433;-63
2024/01/03 12:07:29;;;;;;;1.90;1.27;;;10.50;99.90;;;;;;5114531;28;20422;-64
2024/01/03 12:09:57;;;;;;;6.40;1.97;;;10.60;99.90;;;;;;5114330;28;20445;-62
2024/01/03 12:12:24;;;;;;;2.60;1.30;;;10.60;99.90;;;;;;5115801;28;20469;-63
2024/01/03 12:14:52;;;;;;;3.80;2.17;;;10.70;99.90;;;;;;5116398;28;20572;-63
2024/01/03 12:17:28;;;;;;;3.43;1.63;;;10.70;99.90;;;;;;5123157;28;20445;-63
2024/01/03 12:19:57;;;;;;;4.40;1.60;;;10.60;99.90;;;;;;5123181;28;20426;-63
2024/01/03 12:22:25;;;;;;;3.53;1.80;;;10.60;99.90;;;;;;5114275;28;20469;-64
2024/01/03 12:24:52;;;;;;;3.00;1.90;;;10.60;99.90;;;;;;5113455;28;20437;-63
2024/01/03 12:27:23;;;;;;;4.97;1.63;;;10.60;99.90;;;;;;5113749;28;20437;-63
2024/01/03 12:29:50;;;;;;;3.80;1.73;;;10.70;99.90;;;;;;5113767;28;20433;-65
2024/01/03 12:32:18;;;;;;;3.10;1.50;;;10.70;99.90;;;;;;5113449;28;20462;-64
2024/01/03 12:34:47;;;;;;;5.87;2.07;;;10.80;99.90;;;;;;5117790;28;20469;-64
2024/01/03 12:37:14;;;;;;;2.77;1.50;;;10.70;99.90;;;;;;5117774;28;20816;-63
2024/01/03 12:39:42;;;;;;;6.27;1.70;;;10.80;99.90;;;;;;5117840;28;20943;-64
2024/01/03 12:42:10;;;;;;;4.33;1.90;;;10.80;99.90;;;;;;5118278;28;20473;-64
2024/01/03 12:44:38;;;;;;;5.83;2.20;;;10.80;99.90;;;;;;5121159;28;20444;-63
2024/01/03 12:47:05;;;;;;;5.20;2.53;;;10.70;99.90;;;;;;5134461;28;20864;-63
2024/01/03 12:49:32;;;;;;;4.73;2.20;;;10.70;99.90;;;;;;5117513;27;20445;-63
2024/01/03 12:51:59;;;;;;;3.00;2.00;;;10.70;99.90;;;;;;5117373;28;20486;-63
2024/01/03 12:54:26;;;;;;;2.70;1.60;;;10.70;99.90;;;;;;5117246;28;20473;-64